createdAt,value
2022-11-15T00:02:24.785Z,6.33
2022-11-15T00:05:14.574Z,6.32
2022-11-15T00:08:04.008Z,6.32
2022-11-15T00:11:04.178Z,6.31
2022-11-15T00:13:53.594Z,6.30
2022-11-15T00:16:43.187Z,6.30
2022-11-15T00:19:33.046Z,6.28
2022-11-15T00:22:22.325Z,6.30
2022-11-15T00:25:12.123Z,6.31
2022-11-15T00:28:02.504Z,6.28
2022-11-15T00:30:51.717Z,6.32
2022-11-15T00:33:40.943Z,6.36
2022-11-15T00:36:30.038Z,6.34
2022-11-15T00:39:19.594Z,6.32
2022-11-15T00:42:08.888Z,6.29
2022-11-15T00:44:58.011Z,6.29
2022-11-15T00:47:49.167Z,6.32
2022-11-15T00:50:38.759Z,6.37
2022-11-15T00:53:28.532Z,6.36
2022-11-15T00:56:18.422Z,6.35
2022-11-15T00:59:07.650Z,6.38
2022-11-15T01:01:57.041Z,6.45
2022-11-15T01:04:46.404Z,6.44
2022-11-15T01:07:36.246Z,6.43
2022-11-15T01:10:26.902Z,6.44
2022-11-15T01:13:16.227Z,6.49
2022-11-15T01:16:11.913Z,6.46
2022-11-15T01:19:01.489Z,6.47
2022-11-15T01:21:52.269Z,6.39
2022-11-15T01:24:41.889Z,6.39
2022-11-15T01:27:31.413Z,6.44
2022-11-15T01:30:21.054Z,6.50
2022-11-15T01:33:10.536Z,6.46
2022-11-15T01:36:00.121Z,6.49
2022-11-15T01:38:49.584Z,6.52
2022-11-15T01:41:39.046Z,6.56
2022-11-15T01:44:49.999Z,6.59
2022-11-15T01:47:42.881Z,6.64
2022-11-15T01:50:34.391Z,6.63
2022-11-15T01:53:27.555Z,6.62
2022-11-15T01:56:19.255Z,6.57
2022-11-15T01:59:10.416Z,6.54
2022-11-15T02:02:00.434Z,6.50
2022-11-15T02:04:50.676Z,6.50
2022-11-15T02:07:40.296Z,6.49
2022-11-15T02:10:30.844Z,6.44
2022-11-15T02:13:21.040Z,6.47
2022-11-15T02:16:22.391Z,6.49
2022-11-15T02:19:27.461Z,6.40
2022-11-15T02:22:33.347Z,6.37
2022-11-15T02:25:41.736Z,6.46
2022-11-15T02:28:47.734Z,6.50
2022-11-15T02:31:43.338Z,6.50
2022-11-15T02:34:46.859Z,6.41
2022-11-15T02:37:44.724Z,6.32
2022-11-15T02:40:41.877Z,6.21
2022-11-15T02:43:53.502Z,6.18
2022-11-15T02:47:05.758Z,6.23
2022-11-15T02:49:59.322Z,6.26
2022-11-15T02:52:51.732Z,6.27
2022-11-15T02:55:45.723Z,6.25
2022-11-15T02:58:54.831Z,6.25
2022-11-15T03:02:02.312Z,6.30
2022-11-15T03:04:58.210Z,6.21
2022-11-15T03:07:59.460Z,6.18
2022-11-15T03:11:05.917Z,6.24
2022-11-15T03:14:01.042Z,6.31
2022-11-15T03:16:59.086Z,6.40
2022-11-15T03:19:52.503Z,6.36
2022-11-15T03:22:45.527Z,6.33
2022-11-15T03:25:37.202Z,6.39
2022-11-15T03:28:32.601Z,6.45
2022-11-15T03:31:47.033Z,6.46
2022-11-15T03:34:43.913Z,6.48
2022-11-15T03:37:39.016Z,6.52
2022-11-15T03:40:35.950Z,6.57
2022-11-15T03:43:32.759Z,6.54
2022-11-15T03:46:29.614Z,6.46
2022-11-15T03:49:25.347Z,6.42
2022-11-15T03:52:15.041Z,6.42
2022-11-15T03:55:06.650Z,6.44
2022-11-15T03:58:00.155Z,6.43
2022-11-15T04:00:49.726Z,6.39
2022-11-15T04:03:39.494Z,6.37
2022-11-15T04:06:29.264Z,6.38
2022-11-15T04:09:18.850Z,6.36
2022-11-15T04:12:08.702Z,6.37
2022-11-15T04:15:09.168Z,6.37
2022-11-15T04:18:00.014Z,6.40
2022-11-15T04:21:06.601Z,6.36
2022-11-15T04:24:14.417Z,6.36
2022-11-15T04:27:03.766Z,6.32
2022-11-15T04:29:53.055Z,6.27
2022-11-15T04:32:42.510Z,6.28
2022-11-15T04:35:32.505Z,6.31
2022-11-15T04:38:21.662Z,6.35
2022-11-15T04:41:10.814Z,6.32
2022-11-15T04:44:00.293Z,6.33
2022-11-15T04:46:49.511Z,6.35
2022-11-15T04:49:38.799Z,6.32
2022-11-15T04:52:28.468Z,6.34
2022-11-15T04:55:17.929Z,6.33
2022-11-15T04:58:07.164Z,6.28
2022-11-15T05:00:56.419Z,6.33
2022-11-15T05:04:04.412Z,6.26
2022-11-15T05:06:54.543Z,6.23
2022-11-15T05:09:43.780Z,6.21
2022-11-15T05:12:33.409Z,6.25
2022-11-15T05:15:22.790Z,6.29
2022-11-15T05:18:12.158Z,6.33
2022-11-15T05:21:07.267Z,6.33
2022-11-15T05:23:56.716Z,6.36
2022-11-15T05:26:45.750Z,6.40
2022-11-15T05:29:35.017Z,6.40
2022-11-15T05:32:25.932Z,6.46
2022-11-15T05:35:20.707Z,6.52
2022-11-15T05:38:10.723Z,6.46
2022-11-15T05:41:01.407Z,6.39
2022-11-15T05:43:52.517Z,6.32
2022-11-15T05:46:43.914Z,6.30
2022-11-15T05:49:38.057Z,6.30
2022-11-15T05:52:31.711Z,6.27
2022-11-15T05:55:22.274Z,6.26
2022-11-15T05:58:12.015Z,6.24
2022-11-15T06:01:01.791Z,6.24
2022-11-15T06:03:51.100Z,6.28
2022-11-15T06:06:40.630Z,6.32
2022-11-15T06:09:29.925Z,6.26
2022-11-15T06:12:19.463Z,6.18
2022-11-15T06:15:10.953Z,6.12
2022-11-15T06:18:01.438Z,6.15
2022-11-15T06:20:50.644Z,6.12
2022-11-15T06:23:39.988Z,6.13
2022-11-15T06:26:29.338Z,6.21
2022-11-15T06:29:18.829Z,6.30
2022-11-15T06:32:09.114Z,6.33
2022-11-15T06:34:58.263Z,6.32
2022-11-15T06:37:48.331Z,6.27
2022-11-15T06:40:39.737Z,6.34
2022-11-15T06:43:29.555Z,6.41
2022-11-15T06:46:18.884Z,6.31
2022-11-15T06:49:09.801Z,6.27
2022-11-15T06:51:59.551Z,6.22
2022-11-15T06:54:49.321Z,6.19
2022-11-15T06:57:38.923Z,6.22
2022-11-15T07:00:28.258Z,6.14
2022-11-15T07:03:17.611Z,6.12
2022-11-15T07:06:08.055Z,6.21
2022-11-15T07:08:57.220Z,6.15
2022-11-15T07:11:46.781Z,6.13
2022-11-15T07:14:36.289Z,6.09
2022-11-15T07:17:25.542Z,6.08
2022-11-15T07:20:15.602Z,6.04
2022-11-15T07:23:06.567Z,6.10
2022-11-15T07:25:55.775Z,6.15
2022-11-15T07:28:45.242Z,6.22
2022-11-15T07:31:34.600Z,6.26
2022-11-15T07:34:24.780Z,6.28
2022-11-15T07:37:14.623Z,6.29
2022-11-15T07:40:04.171Z,6.29
2022-11-15T07:42:56.943Z,6.35
2022-11-15T07:45:47.551Z,6.39
2022-11-15T07:48:44.059Z,6.39
2022-11-15T07:51:34.642Z,6.30
2022-11-15T07:54:24.212Z,6.29
2022-11-15T07:57:13.438Z,6.28
2022-11-15T08:00:02.704Z,6.27
2022-11-15T08:02:52.595Z,6.23
2022-11-15T08:05:43.852Z,6.23
2022-11-15T08:08:33.248Z,6.22
2022-11-15T08:11:22.775Z,6.18
2022-11-15T08:14:12.199Z,6.13
2022-11-15T08:17:01.771Z,6.20
2022-11-15T08:19:51.099Z,6.24
2022-11-15T08:22:40.597Z,6.33
2022-11-15T08:25:32.137Z,6.34
2022-11-15T08:28:22.086Z,6.37
2022-11-15T08:31:18.471Z,6.37
2022-11-15T08:34:08.385Z,6.50
2022-11-15T08:36:57.736Z,6.59
2022-11-15T08:39:47.307Z,6.60
2022-11-15T08:42:36.356Z,6.61
2022-11-15T08:45:25.819Z,6.65
2022-11-15T08:48:15.325Z,6.60
2022-11-15T08:51:04.854Z,6.50
2022-11-15T08:53:54.309Z,6.47
2022-11-15T08:56:43.911Z,6.47
2022-11-15T08:59:33.327Z,6.48
2022-11-15T09:02:22.907Z,6.56
2022-11-15T09:05:12.884Z,6.67
2022-11-15T09:08:06.595Z,6.70
2022-11-15T09:11:06.736Z,6.79
2022-11-15T09:13:56.460Z,6.80
2022-11-15T09:16:45.648Z,6.80
2022-11-15T09:19:35.142Z,6.86
2022-11-15T09:22:24.320Z,6.87
2022-11-15T09:25:14.182Z,6.91
2022-11-15T09:28:07.425Z,6.99
2022-11-15T09:31:00.682Z,7.08
2022-11-15T09:33:49.947Z,7.15
2022-11-15T09:36:39.186Z,7.21
2022-11-15T09:39:28.854Z,7.28
2022-11-15T09:42:46.896Z,7.26
2022-11-15T09:45:45.426Z,7.24
2022-11-15T09:48:58.238Z,7.24
2022-11-15T09:51:47.481Z,7.16
2022-11-15T09:57:23.517Z,7.11
2022-11-15T10:03:10.568Z,7.05
2022-11-15T10:05:43.899Z,6.98
2022-11-15T10:08:53.623Z,7.03
2022-11-15T10:11:37.296Z,7.10
2022-11-15T10:14:15.848Z,7.17
2022-11-15T10:17:15.324Z,7.17
2022-11-15T10:20:05.739Z,7.12
2022-11-15T10:22:41.606Z,7.12
2022-11-15T10:25:20.487Z,7.12
2022-11-15T10:28:03.090Z,7.22
2022-11-15T10:30:39.579Z,7.34
2022-11-15T10:33:26.001Z,7.40
2022-11-15T10:36:25.758Z,7.44
2022-11-15T10:39:00.297Z,7.33
2022-11-15T10:41:40.914Z,7.33
2022-11-15T10:44:25.291Z,7.43
2022-11-15T10:47:26.352Z,7.58
2022-11-15T10:50:09.294Z,7.61
2022-11-15T10:52:47.544Z,7.63
2022-11-15T10:55:28.532Z,7.62
2022-11-15T10:58:04.665Z,7.63
2022-11-15T11:00:37.844Z,7.69
2022-11-15T11:03:28.963Z,7.81
2022-11-15T11:06:13.256Z,7.85
2022-11-15T11:08:54.988Z,7.92
2022-11-15T11:11:26.051Z,7.96
2022-11-15T11:13:56.623Z,7.99
2022-11-15T11:16:51.385Z,8.03
2022-11-15T11:19:40.208Z,8.03
2022-11-15T11:22:20.557Z,8.02
2022-11-15T11:25:05.968Z,8.01
2022-11-15T11:27:45.137Z,8.09
2022-11-15T11:30:20.747Z,8.10
2022-11-15T11:33:23.851Z,8.11
2022-11-15T11:36:06.176Z,8.08
2022-11-15T11:38:56.180Z,8.14
2022-11-15T11:41:49.657Z,8.25
2022-11-15T11:44:31.404Z,8.21
2022-11-15T11:47:05.916Z,8.26
2022-11-15T11:49:44.282Z,8.33
2022-11-15T11:52:18.961Z,8.36
2022-11-15T11:55:05.561Z,8.38
2022-11-15T11:57:45.446Z,8.47
2022-11-15T12:00:23.265Z,8.57
2022-11-15T12:03:07.290Z,8.62
2022-11-15T12:05:42.180Z,8.68
2022-11-15T12:08:24.622Z,8.68
2022-11-15T12:11:02.756Z,8.62
2022-11-15T12:13:37.839Z,8.66
2022-11-15T12:16:13.801Z,8.68
2022-11-15T12:18:50.618Z,8.64
2022-11-15T12:21:31.463Z,8.67
2022-11-15T12:24:06.320Z,8.62
2022-11-15T12:26:42.227Z,8.64
2022-11-15T12:29:22.389Z,8.67
2022-11-15T12:32:00.821Z,8.72
2022-11-15T12:34:42.454Z,8.75
2022-11-15T12:37:48.350Z,8.77
2022-11-15T12:40:31.131Z,8.81
2022-11-15T12:43:05.266Z,8.90
2022-11-15T12:45:37.834Z,8.82
2022-11-15T12:48:43.160Z,8.76
2022-11-15T12:51:13.758Z,8.79
2022-11-15T12:53:44.799Z,8.79
2022-11-15T12:56:34.881Z,8.78
2022-11-15T12:59:08.778Z,8.79
2022-11-15T13:02:03.616Z,8.80
2022-11-15T13:04:34.507Z,8.85
2022-11-15T13:07:08.574Z,8.84
2022-11-15T13:09:57.419Z,8.89
2022-11-15T13:12:54.164Z,8.97
2022-11-15T13:15:47.986Z,8.92
2022-11-15T13:18:39.612Z,8.87
2022-11-15T13:21:41.592Z,8.84
2022-11-15T13:24:21.000Z,8.88
2022-11-15T13:26:53.022Z,8.89
2022-11-15T13:29:23.788Z,8.86
2022-11-15T13:31:56.607Z,8.89
2022-11-15T13:37:35.442Z,9.00
2022-11-15T13:40:31.408Z,9.04
2022-11-15T13:43:16.012Z,8.98
2022-11-15T13:45:46.652Z,8.84
2022-11-15T13:48:17.522Z,8.83
2022-11-15T13:50:48.269Z,8.87
2022-11-15T13:53:19.356Z,8.92
2022-11-15T13:55:50.084Z,8.90
2022-11-15T13:58:24.162Z,8.86
2022-11-15T14:01:03.654Z,8.82
2022-11-15T14:03:36.746Z,8.78
2022-11-15T14:06:12.913Z,8.80
2022-11-15T14:08:44.754Z,8.81
2022-11-15T14:11:20.440Z,8.79
2022-11-15T14:14:13.111Z,8.73
2022-11-15T14:16:45.483Z,8.66
2022-11-15T14:19:40.538Z,8.73
2022-11-15T14:22:21.474Z,8.75
2022-11-15T14:25:17.475Z,8.64
2022-11-15T14:28:08.820Z,8.48
2022-11-15T14:30:40.165Z,8.45
2022-11-15T14:33:24.225Z,8.50
2022-11-15T14:35:56.381Z,8.49
2022-11-15T14:38:27.374Z,8.44
2022-11-15T14:41:02.331Z,8.45
2022-11-15T14:43:34.558Z,8.50
2022-11-15T14:46:05.629Z,8.50
2022-11-15T14:48:36.319Z,8.50
2022-11-15T14:51:11.395Z,8.49
2022-11-15T14:53:42.284Z,8.53
2022-11-15T14:56:13.069Z,8.48
2022-11-15T14:58:49.882Z,8.51
2022-11-15T15:01:26.087Z,8.47
2022-11-15T15:03:59.269Z,8.47
2022-11-15T15:06:31.674Z,8.53
2022-11-15T15:09:02.388Z,8.57
2022-11-15T15:11:33.969Z,8.60
2022-11-15T15:14:04.578Z,8.60
2022-11-15T15:16:35.188Z,8.59
2022-11-15T15:19:05.775Z,8.57
2022-11-15T15:21:37.670Z,8.50
2022-11-15T15:24:10.762Z,8.50
2022-11-15T15:26:41.736Z,8.51
2022-11-15T15:29:12.438Z,8.53
2022-11-15T15:31:43.067Z,8.55
2022-11-15T15:34:16.760Z,8.53
2022-11-15T15:36:47.757Z,8.48
2022-11-15T15:39:18.351Z,8.48
2022-11-15T15:41:52.265Z,8.49
2022-11-15T15:44:25.840Z,8.45
2022-11-15T15:46:58.819Z,8.41
2022-11-15T15:49:30.443Z,8.44
2022-11-15T15:52:01.042Z,8.47
2022-11-15T15:54:31.717Z,8.51
2022-11-15T15:57:02.329Z,8.48
2022-11-15T15:59:33.026Z,8.39
2022-11-15T16:02:03.729Z,8.39
2022-11-15T16:04:34.371Z,8.34
2022-11-15T16:07:05.481Z,8.31
2022-11-15T16:10:02.304Z,8.31
2022-11-15T16:12:34.242Z,8.33
2022-11-15T16:15:06.980Z,8.35
2022-11-15T16:17:43.349Z,8.40
2022-11-15T16:20:24.455Z,8.42
2022-11-15T16:22:55.095Z,8.41
2022-11-15T16:25:26.720Z,8.41
2022-11-15T16:27:57.406Z,8.38
2022-11-15T16:30:28.020Z,8.36
2022-11-15T16:32:58.617Z,8.39
2022-11-15T16:35:29.194Z,8.34
2022-11-15T16:37:59.784Z,8.26
2022-11-15T16:40:32.939Z,8.23
2022-11-15T16:43:04.556Z,8.20
2022-11-15T16:45:37.305Z,8.23
2022-11-15T16:48:08.035Z,8.24
2022-11-15T16:50:41.696Z,8.19
2022-11-15T16:53:12.602Z,8.17
2022-11-15T16:55:43.322Z,8.21
2022-11-15T16:58:14.024Z,8.24
2022-11-15T17:00:46.795Z,8.18
2022-11-15T17:03:17.554Z,8.10
2022-11-15T17:05:48.245Z,8.13
2022-11-15T17:08:22.609Z,8.17
2022-11-15T17:10:53.603Z,8.16
2022-11-15T17:13:24.352Z,8.12
2022-11-15T17:16:06.750Z,8.12
2022-11-15T17:18:38.242Z,8.02
2022-11-15T17:21:13.559Z,8.04
2022-11-15T17:23:44.569Z,8.09
2022-11-15T17:26:29.671Z,8.15
2022-11-15T17:29:02.441Z,8.18
2022-11-15T17:31:34.068Z,8.22
2022-11-15T17:34:06.091Z,8.27
2022-11-15T17:36:37.429Z,8.29
2022-11-15T17:39:08.330Z,8.27
2022-11-15T17:41:38.931Z,8.24
2022-11-15T17:44:09.618Z,8.13
2022-11-15T17:46:40.860Z,8.09
2022-11-15T17:49:11.473Z,8.09
2022-11-15T17:51:45.048Z,7.91
2022-11-15T17:54:19.444Z,7.80
2022-11-15T17:56:50.318Z,7.76
2022-11-15T17:59:21.918Z,7.84
2022-11-15T18:01:53.916Z,7.92
2022-11-15T18:04:28.212Z,7.96
2022-11-15T18:06:58.933Z,7.96
2022-11-15T18:09:29.594Z,7.95
2022-11-15T18:12:00.208Z,7.89
2022-11-15T18:14:31.032Z,7.68
2022-11-15T18:17:01.641Z,7.59
2022-11-15T18:19:32.248Z,7.70
2022-11-15T18:22:05.049Z,7.67
2022-11-15T18:24:38.941Z,7.59
2022-11-15T18:27:09.920Z,7.65
2022-11-15T18:29:40.533Z,7.62
2022-11-15T18:32:15.087Z,7.69
2022-11-15T18:34:45.943Z,7.73
2022-11-15T18:37:16.559Z,7.78
2022-11-15T18:39:52.580Z,7.73
2022-11-15T18:42:24.337Z,7.73
2022-11-15T18:44:55.330Z,7.76
2022-11-15T18:47:25.928Z,7.81
2022-11-15T18:49:58.412Z,7.70
2022-11-15T18:52:29.036Z,7.64
2022-11-15T18:54:59.644Z,7.62
2022-11-15T18:57:30.286Z,7.62
2022-11-15T19:00:00.895Z,7.63
2022-11-15T19:02:31.530Z,7.67
2022-11-15T19:05:02.242Z,7.71
2022-11-15T19:07:33.611Z,7.68
2022-11-15T19:10:04.553Z,7.62
2022-11-15T19:12:35.138Z,7.55
2022-11-15T19:15:10.125Z,7.52
2022-11-15T19:17:41.013Z,7.55
2022-11-15T19:20:12.782Z,7.57
2022-11-15T19:22:43.355Z,7.60
2022-11-15T19:25:14.487Z,7.61
2022-11-15T19:27:45.058Z,7.61
2022-11-15T19:30:16.516Z,7.60
2022-11-15T19:32:47.108Z,7.60
2022-11-15T19:35:18.801Z,7.53
2022-11-15T19:37:49.481Z,7.47
2022-11-15T19:40:20.537Z,7.47
2022-11-15T19:42:51.148Z,7.46
2022-11-15T19:45:21.747Z,7.41
2022-11-15T19:47:52.535Z,7.42
2022-11-15T19:50:23.131Z,7.45
2022-11-15T19:52:53.797Z,7.41
2022-11-15T19:55:24.424Z,7.26
2022-11-15T19:57:55.048Z,7.28
2022-11-15T20:00:25.803Z,7.35
2022-11-15T20:02:56.379Z,7.34
2022-11-15T20:05:27.098Z,7.36
2022-11-15T20:07:57.713Z,7.34
2022-11-15T20:10:28.381Z,7.20
2022-11-15T20:12:59.024Z,7.08
2022-11-15T20:15:29.626Z,6.91
2022-11-15T20:18:00.220Z,6.84
2022-11-15T20:20:31.055Z,6.89
2022-11-15T20:23:03.341Z,6.96
2022-11-15T20:25:38.023Z,7.01
2022-11-15T20:28:11.134Z,6.98
2022-11-15T20:30:43.521Z,6.96
2022-11-15T20:33:14.946Z,7.00
2022-11-15T20:35:45.600Z,7.09
2022-11-15T20:38:16.484Z,7.17
2022-11-15T20:40:49.315Z,7.17
2022-11-15T20:43:22.222Z,7.20
2022-11-15T20:45:52.821Z,7.16
2022-11-15T20:48:23.816Z,7.05
2022-11-15T20:51:03.990Z,7.03
2022-11-15T20:53:34.959Z,7.01
2022-11-15T20:56:11.837Z,6.94
2022-11-15T20:58:43.160Z,6.95
2022-11-15T21:01:16.418Z,6.88
2022-11-15T21:03:47.198Z,6.73
2022-11-15T21:06:20.853Z,6.63
2022-11-15T21:09:09.787Z,6.57
2022-11-15T21:11:58.709Z,6.57
2022-11-15T21:14:29.346Z,6.63
2022-11-15T21:17:00.288Z,6.67
2022-11-15T21:19:35.533Z,6.72
2022-11-15T21:22:09.463Z,6.79
2022-11-15T21:24:40.395Z,6.89
2022-11-15T21:27:11.015Z,6.89
2022-11-15T21:29:45.558Z,6.81
2022-11-15T21:32:16.173Z,6.75
2022-11-15T21:34:46.912Z,6.76
2022-11-15T21:37:17.592Z,6.70
2022-11-15T21:39:48.209Z,6.56
2022-11-15T21:42:18.835Z,6.48
2022-11-15T21:44:49.453Z,6.40
2022-11-15T21:47:20.440Z,6.38
2022-11-15T21:49:51.042Z,6.43
2022-11-15T21:52:21.636Z,6.45
2022-11-15T21:54:53.879Z,6.46
2022-11-15T21:57:24.721Z,6.46
2022-11-15T22:00:13.092Z,6.44
2022-11-15T22:02:43.724Z,6.44
2022-11-15T22:08:03.146Z,6.39
2022-11-15T22:10:33.947Z,6.45
2022-11-15T22:13:04.799Z,6.52
2022-11-15T22:15:35.693Z,6.58
2022-11-15T22:18:06.780Z,6.66
2022-11-15T22:20:44.414Z,6.60
2022-11-15T22:23:15.679Z,6.65
2022-11-15T22:25:46.593Z,6.67
2022-11-15T22:28:17.496Z,6.69
2022-11-15T22:30:50.061Z,6.78
2022-11-15T22:33:22.846Z,6.78
2022-11-15T22:35:53.979Z,6.83
2022-11-15T22:38:25.354Z,6.91
2022-11-15T22:40:56.689Z,6.95
2022-11-15T22:43:28.603Z,6.86
2022-11-15T22:46:01.435Z,6.82
2022-11-15T22:48:34.505Z,6.83
2022-11-15T22:51:06.901Z,6.89
2022-11-15T22:53:37.833Z,6.91
2022-11-15T22:56:09.487Z,6.99
2022-11-15T22:58:40.594Z,6.99
2022-11-15T23:01:22.706Z,6.97
2022-11-15T23:03:53.671Z,6.92
2022-11-15T23:06:24.629Z,6.94
2022-11-15T23:08:55.578Z,7.01
2022-11-15T23:11:43.880Z,6.99
2022-11-15T23:14:14.818Z,7.02
2022-11-15T23:16:46.158Z,6.90
2022-11-15T23:19:17.127Z,6.82
2022-11-15T23:22:06.080Z,6.80
2022-11-15T23:24:37.070Z,6.80
2022-11-15T23:27:08.834Z,6.78
2022-11-15T23:29:53.672Z,6.80
2022-11-15T23:32:42.450Z,6.87
2022-11-15T23:35:13.408Z,6.91
2022-11-15T23:37:44.360Z,6.95
2022-11-15T23:40:16.202Z,7.04
2022-11-15T23:42:47.113Z,7.11
2022-11-15T23:45:18.469Z,7.07
2022-11-15T23:47:49.401Z,7.11
2022-11-15T23:50:20.793Z,7.17
2022-11-15T23:52:51.767Z,7.20
2022-11-15T23:55:22.676Z,7.25
2022-11-15T23:57:53.619Z,7.25
